sensor_id;sensor_type;location;lat;lon;timestamp;pressure;altitude;pressure_sealevel;temperature;humidity
818;BME280;391;51.052;6.954;2022-08-01T00:00:18;101146.16;;;21.71;78.64
818;BME280;391;51.052;6.954;2022-08-01T00:02:21;101139.09;;;21.69;79.17
818;BME280;391;51.052;6.954;2022-08-01T00:04:25;101142.59;;;21.72;79.10
818;BME280;391;51.052;6.954;2022-08-01T00:06:29;101144.34;;;21.75;78.44
818;BME280;391;51.052;6.954;2022-08-01T00:08:34;101137.19;;;21.81;78.50
818;BME280;391;51.052;6.954;2022-08-01T00:10:37;101146.94;;;21.82;78.68
818;BME280;391;51.052;6.954;2022-08-01T00:12:45;101147.00;;;21.73;78.03
818;BME280;391;51.052;6.954;2022-08-01T00:14:48;101151.41;;;21.74;78.60
818;BME280;391;51.052;6.954;2022-08-01T00:16:52;101142.47;;;21.84;78.33
818;BME280;391;51.052;6.954;2022-08-01T00:18:56;101146.97;;;21.79;77.81
818;BME280;391;51.052;6.954;2022-08-01T00:20:59;101142.53;;;21.77;78.01
818;BME280;391;51.052;6.954;2022-08-01T00:23:03;101143.38;;;21.80;76.98
818;BME280;391;51.052;6.954;2022-08-01T00:25:09;101137.13;;;21.86;77.43
818;BME280;391;51.052;6.954;2022-08-01T00:27:13;101129.22;;;21.81;77.64
818;BME280;391;51.052;6.954;2022-08-01T00:29:17;101139.78;;;21.90;76.49
818;BME280;391;51.052;6.954;2022-08-01T00:31:41;101137.97;;;21.94;77.51
818;BME280;391;51.052;6.954;2022-08-01T00:33:45;101140.66;;;21.89;77.02
818;BME280;391;51.052;6.954;2022-08-01T00:35:48;101137.97;;;21.92;76.33
818;BME280;391;51.052;6.954;2022-08-01T00:37:52;101144.31;;;21.79;76.71
818;BME280;391;51.052;6.954;2022-08-01T00:39:55;101140.78;;;21.77;76.71
818;BME280;391;51.052;6.954;2022-08-01T00:42:01;101136.34;;;21.78;76.46
818;BME280;391;51.052;6.954;2022-08-01T00:44:09;101143.56;;;21.65;76.94
818;BME280;391;51.052;6.954;2022-08-01T00:46:13;101122.41;;;21.56;77.02
818;BME280;391;51.052;6.954;2022-08-01T00:48:16;101141.72;;;21.70;77.10
818;BME280;391;51.052;6.954;2022-08-01T00:50:20;101139.19;;;21.59;76.43
818;BME280;391;51.052;6.954;2022-08-01T00:52:26;101147.16;;;21.58;77.19
818;BME280;391;51.052;6.954;2022-08-01T00:54:30;101141.81;;;21.61;76.91
818;BME280;391;51.052;6.954;2022-08-01T00:56:34;101141.94;;;21.50;76.73
818;BME280;391;51.052;6.954;2022-08-01T00:58:39;101121.69;;;21.40;77.33
818;BME280;391;51.052;6.954;2022-08-01T01:00:42;101144.63;;;21.44;76.83
818;BME280;391;51.052;6.954;2022-08-01T01:02:55;101135.81;;;21.42;76.97
818;BME280;391;51.052;6.954;2022-08-01T01:04:58;101140.19;;;21.49;76.92
818;BME280;391;51.052;6.954;2022-08-01T01:07:07;101143.00;;;21.31;76.94
818;BME280;391;51.052;6.954;2022-08-01T01:09:24;101144.84;;;21.20;77.88
818;BME280;391;51.052;6.954;2022-08-01T01:11:39;101138.56;;;21.30;77.15
818;BME280;391;51.052;6.954;2022-08-01T01:13:53;101131.56;;;21.25;77.38
818;BME280;391;51.052;6.954;2022-08-01T01:16:05;101144.84;;;21.22;77.29
818;BME280;391;51.052;6.954;2022-08-01T01:18:29;101148.38;;;21.19;78.08
818;BME280;391;51.052;6.954;2022-08-01T01:20:37;101150.97;;;21.25;77.88
818;BME280;391;51.052;6.954;2022-08-01T01:22:50;101148.44;;;21.13;77.70
818;BME280;391;51.052;6.954;2022-08-01T01:25:10;101142.25;;;21.14;77.84
818;BME280;391;51.052;6.954;2022-08-01T01:27:26;101135.19;;;21.12;78.21
818;BME280;391;51.052;6.954;2022-08-01T01:29:37;101150.16;;;21.20;78.43
818;BME280;391;51.052;6.954;2022-08-01T01:32:05;101144.00;;;21.17;78.41
818;BME280;391;51.052;6.954;2022-08-01T01:34:12;101150.16;;;21.20;77.92
818;BME280;391;51.052;6.954;2022-08-01T01:36:18;101145.81;;;21.12;77.85
818;BME280;391;51.052;6.954;2022-08-01T01:38:26;101150.19;;;21.17;78.36
818;BME280;391;51.052;6.954;2022-08-01T01:40:32;101149.31;;;21.15;78.42
818;BME280;391;51.052;6.954;2022-08-01T01:42:37;101147.53;;;21.19;77.56
818;BME280;391;51.052;6.954;2022-08-01T01:44:43;101156.41;;;21.15;77.73
818;BME280;391;51.052;6.954;2022-08-01T01:46:48;101145.81;;;21.08;78.16
818;BME280;391;51.052;6.954;2022-08-01T01:48:55;101151.03;;;21.19;78.60
818;BME280;391;51.052;6.954;2022-08-01T01:51:00;101143.06;;;21.24;77.86
818;BME280;391;51.052;6.954;2022-08-01T01:53:05;101145.69;;;21.27;77.85
818;BME280;391;51.052;6.954;2022-08-01T01:55:18;101155.34;;;21.34;77.08
818;BME280;391;51.052;6.954;2022-08-01T01:57:23;101158.06;;;21.28;77.55
818;BME280;391;51.052;6.954;2022-08-01T01:59:30;101152.84;;;21.19;77.77
818;BME280;391;51.052;6.954;2022-08-01T02:01:36;101153.75;;;21.13;77.84
818;BME280;391;51.052;6.954;2022-08-01T02:04:00;101149.34;;;21.12;77.79
818;BME280;391;51.052;6.954;2022-08-01T02:06:06;101151.13;;;21.04;78.16
818;BME280;391;51.052;6.954;2022-08-01T02:08:14;101147.59;;;21.05;77.69
818;BME280;391;51.052;6.954;2022-08-01T02:10:19;101142.38;;;20.93;78.13
818;BME280;391;51.052;6.954;2022-08-01T02:12:35;101144.97;;;21.00;78.12
818;BME280;391;51.052;6.954;2022-08-01T02:14:40;101143.19;;;21.01;78.05
818;BME280;391;51.052;6.954;2022-08-01T02:16:49;101138.72;;;21.10;77.67
818;BME280;391;51.052;6.954;2022-08-01T02:18:53;101139.63;;;21.09;78.17
818;BME280;391;51.052;6.954;2022-08-01T02:20:57;101147.50;;;21.22;78.01
818;BME280;391;51.052;6.954;2022-08-01T02:23:06;101132.53;;;21.10;77.13
818;BME280;391;51.052;6.954;2022-08-01T02:25:17;101136.03;;;21.17;77.59
818;BME280;391;51.052;6.954;2022-08-01T02:27:27;101123.69;;;21.06;77.01
818;BME280;391;51.052;6.954;2022-08-01T02:29:42;101113.16;;;20.99;77.71
818;BME280;391;51.052;6.954;2022-08-01T02:31:52;101138.66;;;21.21;77.47
818;BME280;391;51.052;6.954;2022-08-01T02:34:00;101136.97;;;21.05;77.74
818;BME280;391;51.052;6.954;2022-08-01T02:36:06;101142.22;;;21.17;77.75
818;BME280;391;51.052;6.954;2022-08-01T02:38:32;101140.53;;;21.05;77.47
818;BME280;391;51.052;6.954;2022-08-01T02:40:39;101141.38;;;21.14;77.75
818;BME280;391;51.052;6.954;2022-08-01T02:42:46;101132.47;;;21.19;77.41
818;BME280;391;51.052;6.954;2022-08-01T02:44:52;101129.88;;;21.15;77.06
818;BME280;391;51.052;6.954;2022-08-01T02:47:01;101132.47;;;21.19;77.00
818;BME280;391;51.052;6.954;2022-08-01T02:49:07;101126.34;;;21.06;77.23
818;BME280;391;51.052;6.954;2022-08-01T02:51:13;101135.19;;;21.12;77.32
818;BME280;391;51.052;6.954;2022-08-01T02:53:19;101132.53;;;21.08;77.89
818;BME280;391;51.052;6.954;2022-08-01T02:55:45;101136.94;;;21.13;77.50
818;BME280;391;51.052;6.954;2022-08-01T02:57:51;101121.97;;;21.04;77.90
818;BME280;391;51.052;6.954;2022-08-01T03:00:02;101125.50;;;21.03;78.10
818;BME280;391;51.052;6.954;2022-08-01T03:02:09;101122.84;;;21.04;78.24
818;BME280;391;51.052;6.954;2022-08-01T03:04:15;101106.19;;;20.89;78.13
818;BME280;391;51.052;6.954;2022-08-01T03:06:23;101121.06;;;21.05;77.76
818;BME280;391;51.052;6.954;2022-08-01T03:08:28;101129.03;;;21.05;78.35
818;BME280;391;51.052;6.954;2022-08-01T03:10:35;101132.53;;;21.10;78.19
818;BME280;391;51.052;6.954;2022-08-01T03:12:40;101127.31;;;20.99;77.69
818;BME280;391;51.052;6.954;2022-08-01T03:14:47;101132.66;;;20.92;78.77
818;BME280;391;51.052;6.954;2022-08-01T03:16:54;101131.78;;;20.91;78.55
818;BME280;391;51.052;6.954;2022-08-01T03:19:02;101130.81;;;21.01;78.10
818;BME280;391;51.052;6.954;2022-08-01T03:21:08;101124.63;;;21.01;77.78
818;BME280;391;51.052;6.954;2022-08-01T03:23:13;101138.81;;;20.94;78.38
818;BME280;391;51.052;6.954;2022-08-01T03:25:20;101140.53;;;21.05;78.62
818;BME280;391;51.052;6.954;2022-08-01T03:27:24;101144.91;;;21.14;77.67
818;BME280;391;51.052;6.954;2022-08-01T03:29:29;101147.53;;;21.19;77.94
818;BME280;391;51.052;6.954;2022-08-01T03:31:36;101145.75;;;21.16;77.90
818;BME280;391;51.052;6.954;2022-08-01T03:33:41;101145.81;;;21.10;78.00
818;BME280;391;51.052;6.954;2022-08-01T03:35:48;101152.00;;;21.10;77.80
818;BME280;391;51.052;6.954;2022-08-01T03:37:54;101147.59;;;21.03;77.72
818;BME280;391;51.052;6.954;2022-08-01T03:40:33;101147.59;;;21.03;78.10
818;BME280;391;51.052;6.954;2022-08-01T03:42:44;101157.31;;;21.10;78.37
818;BME280;391;51.052;6.954;2022-08-01T03:44:52;101154.66;;;21.10;77.83
818;BME280;391;51.052;6.954;2022-08-01T03:46:59;101144.97;;;21.00;78.30
818;BME280;391;51.052;6.954;2022-08-01T03:49:11;101147.63;;;20.97;78.37
818;BME280;391;51.052;6.954;2022-08-01T03:51:21;101151.19;;;20.93;78.86
818;BME280;391;51.052;6.954;2022-08-01T03:53:29;101127.44;;;20.80;78.96
818;BME280;391;51.052;6.954;2022-08-01T03:55:36;101141.44;;;20.97;78.80
818;BME280;391;51.052;6.954;2022-08-01T03:57:42;101147.63;;;20.99;78.78
818;BME280;391;51.052;6.954;2022-08-01T03:59:47;101143.22;;;20.96;78.84
818;BME280;391;51.052;6.954;2022-08-01T04:01:52;101148.50;;;21.01;78.62
818;BME280;391;51.052;6.954;2022-08-01T04:03:58;101146.75;;;20.97;78.75
818;BME280;391;51.052;6.954;2022-08-01T04:06:03;101152.00;;;21.03;78.63
818;BME280;391;51.052;6.954;2022-08-01T04:08:09;101147.56;;;21.09;78.05
818;BME280;391;51.052;6.954;2022-08-01T04:10:13;101154.63;;;21.07;78.51
818;BME280;391;51.052;6.954;2022-08-01T04:12:16;101151.09;;;21.08;78.81
818;BME280;391;51.052;6.954;2022-08-01T04:14:23;101144.91;;;21.13;78.88
818;BME280;391;51.052;6.954;2022-08-01T04:16:30;101143.03;;;21.25;78.51
818;BME280;391;51.052;6.954;2022-08-01T04:18:39;101151.00;;;21.28;78.30
818;BME280;391;51.052;6.954;2022-08-01T04:20:46;101145.63;;;21.33;77.99
818;BME280;391;51.052;6.954;2022-08-01T04:22:50;101150.00;;;21.38;77.61
818;BME280;391;51.052;6.954;2022-08-01T04:24:56;101146.47;;;21.36;77.72
818;BME280;391;51.052;6.954;2022-08-01T04:27:01;101149.19;;;21.30;78.23
818;BME280;391;51.052;6.954;2022-08-01T04:29:06;101155.47;;;21.16;78.73
818;BME280;391;51.052;6.954;2022-08-01T04:31:13;101160.81;;;21.14;78.94
818;BME280;391;51.052;6.954;2022-08-01T04:33:19;101157.22;;;21.21;79.19
818;BME280;391;51.052;6.954;2022-08-01T04:35:24;101161.66;;;21.16;78.54
818;BME280;391;51.052;6.954;2022-08-01T04:37:48;101166.16;;;21.11;79.14
818;BME280;391;51.052;6.954;2022-08-01T04:39:56;101157.31;;;21.04;79.02
818;BME280;391;51.052;6.954;2022-08-01T04:42:01;101158.22;;;21.02;79.22
818;BME280;391;51.052;6.954;2022-08-01T04:44:06;101071.16;;;20.40;79.52
818;BME280;391;51.052;6.954;2022-08-01T04:46:11;101168.81;;;21.00;79.30
818;BME280;391;51.052;6.954;2022-08-01T04:48:17;101172.34;;;21.04;79.82
818;BME280;391;51.052;6.954;2022-08-01T04:50:24;101176.72;;;21.06;79.56
818;BME280;391;51.052;6.954;2022-08-01T04:52:34;101177.63;;;21.10;79.49
818;BME280;391;51.052;6.954;2022-08-01T04:54:38;101177.63;;;21.10;79.07
818;BME280;391;51.052;6.954;2022-08-01T04:56:42;101177.63;;;21.12;79.75
818;BME280;391;51.052;6.954;2022-08-01T04:58:52;101182.06;;;21.11;80.05
818;BME280;391;51.052;6.954;2022-08-01T05:01:10;101176.78;;;21.02;79.68
818;BME280;391;51.052;6.954;2022-08-01T05:03:14;101172.41;;;20.99;79.74
818;BME280;391;51.052;6.954;2022-08-01T05:05:17;101181.16;;;21.07;79.71
818;BME280;391;51.052;6.954;2022-08-01T05:07:22;101184.66;;;21.19;79.64
818;BME280;391;51.052;6.954;2022-08-01T05:09:26;101180.22;;;21.16;79.36
818;BME280;391;51.052;6.954;2022-08-01T05:11:32;101187.31;;;21.17;79.50
818;BME280;391;51.052;6.954;2022-08-01T05:13:37;101191.69;;;21.23;79.02
818;BME280;391;51.052;6.954;2022-08-01T05:15:41;101184.63;;;21.23;79.40
818;BME280;391;51.052;6.954;2022-08-01T05:17:44;101147.56;;;21.06;79.07
818;BME280;391;51.052;6.954;2022-08-01T05:19:48;101189.81;;;21.37;78.38
818;BME280;391;51.052;6.954;2022-08-01T05:21:52;101193.34;;;21.36;78.03
818;BME280;391;51.052;6.954;2022-08-01T05:24:01;101193.38;;;21.34;nan
818;BME280;391;51.052;6.954;2022-08-01T05:26:06;101196.03;;;21.33;78.47
818;BME280;391;51.052;6.954;2022-08-01T05:28:10;101196.03;;;21.33;78.44
818;BME280;391;51.052;6.954;2022-08-01T05:30:22;101196.00;;;21.36;78.53
818;BME280;391;51.052;6.954;2022-08-01T05:32:25;101198.66;;;21.36;78.32
818;BME280;391;51.052;6.954;2022-08-01T05:34:29;101194.31;;;21.26;78.05
818;BME280;391;51.052;6.954;2022-08-01T05:36:32;101204.13;;;21.18;78.35
818;BME280;391;51.052;6.954;2022-08-01T05:38:36;101201.47;;;21.13;78.63
818;BME280;391;51.052;6.954;2022-08-01T05:40:40;101207.63;;;21.20;78.86
818;BME280;391;51.052;6.954;2022-08-01T05:42:44;101207.63;;;21.20;78.46
818;BME280;391;51.052;6.954;2022-08-01T05:44:47;101202.28;;;21.26;78.69
818;BME280;391;51.052;6.954;2022-08-01T05:46:53;101204.88;;;21.33;78.62
818;BME280;391;51.052;6.954;2022-08-01T05:48:57;101208.44;;;21.31;78.15
818;BME280;391;51.052;6.954;2022-08-01T05:51:01;101211.06;;;21.34;78.51
818;BME280;391;51.052;6.954;2022-08-01T05:53:04;101204.91;;;21.30;77.94
818;BME280;391;51.052;6.954;2022-08-01T05:55:08;101209.28;;;21.33;77.92
818;BME280;391;51.052;6.954;2022-08-01T05:57:12;101205.72;;;21.40;77.71
818;BME280;391;51.052;6.954;2022-08-01T05:59:16;101203.88;;;21.45;77.93
818;BME280;391;51.052;6.954;2022-08-01T06:01:20;101209.13;;;21.51;78.00
818;BME280;391;51.052;6.954;2022-08-01T06:03:25;101212.63;;;21.57;78.09
818;BME280;391;51.052;6.954;2022-08-01T06:05:33;101216.13;;;21.61;77.80
818;BME280;391;51.052;6.954;2022-08-01T06:07:36;101218.84;;;21.56;76.49
818;BME280;391;51.052;6.954;2022-08-01T06:09:40;101212.72;;;21.50;76.20
818;BME280;391;51.052;6.954;2022-08-01T06:11:44;101209.13;;;21.51;76.02
818;BME280;391;51.052;6.954;2022-08-01T06:13:47;101208.22;;;21.56;76.89
818;BME280;391;51.052;6.954;2022-08-01T06:15:51;101206.44;;;21.58;75.88
818;BME280;391;51.052;6.954;2022-08-01T06:17:55;101192.38;;;21.50;75.89
818;BME280;391;51.052;6.954;2022-08-01T06:20:00;101205.59;;;21.56;75.33
818;BME280;391;51.052;6.954;2022-08-01T06:22:03;101215.28;;;21.59;75.30
818;BME280;391;51.052;6.954;2022-08-01T06:24:07;101215.28;;;21.57;75.88
818;BME280;391;51.052;6.954;2022-08-01T06:26:11;101210.81;;;21.64;75.71
818;BME280;391;51.052;6.954;2022-08-01T06:28:15;101224.09;;;21.62;75.78
818;BME280;391;51.052;6.954;2022-08-01T06:30:18;101219.78;;;21.48;75.32
818;BME280;391;51.052;6.954;2022-08-01T06:32:22;101209.25;;;21.39;75.05
818;BME280;391;51.052;6.954;2022-08-01T06:34:28;101210.16;;;21.35;76.41
818;BME280;391;51.052;6.954;2022-08-01T06:36:33;101206.53;;;21.45;75.91
818;BME280;391;51.052;6.954;2022-08-01T06:38:37;101215.34;;;21.51;75.72
818;BME280;391;51.052;6.954;2022-08-01T06:40:41;101209.06;;;21.61;75.59
818;BME280;391;51.052;6.954;2022-08-01T06:42:44;101213.34;;;21.76;75.03
818;BME280;391;51.052;6.954;2022-08-01T06:44:49;101211.47;;;21.86;74.72
818;BME280;391;51.052;6.954;2022-08-01T06:46:53;101212.28;;;21.95;74.33
818;BME280;391;51.052;6.954;2022-08-01T06:48:57;101207.78;;;22.08;73.61
818;BME280;391;51.052;6.954;2022-08-01T06:51:01;101212.09;;;22.17;72.85
818;BME280;391;51.052;6.954;2022-08-01T06:53:12;101205.09;;;22.09;72.64
818;BME280;391;51.052;6.954;2022-08-01T06:55:16;101206.09;;;21.98;73.70
818;BME280;391;51.052;6.954;2022-08-01T06:57:19;101206.09;;;21.96;73.19
818;BME280;391;51.052;6.954;2022-08-01T06:59:23;101213.22;;;21.93;73.17
818;BME280;391;51.052;6.954;2022-08-01T07:01:26;101209.72;;;21.91;72.93
818;BME280;391;51.052;6.954;2022-08-01T07:03:30;101215.00;;;21.86;73.43
818;BME280;391;51.052;6.954;2022-08-01T07:05:53;101215.94;;;21.84;73.62
818;BME280;391;51.052;6.954;2022-08-01T07:07:57;101215.88;;;21.94;72.83
818;BME280;391;51.052;6.954;2022-08-01T07:10:04;101220.31;;;21.88;73.11
818;BME280;391;51.052;6.954;2022-08-01T07:12:08;101201.78;;;21.83;72.94
818;BME280;391;51.052;6.954;2022-08-01T07:14:12;101214.97;;;21.92;72.61
818;BME280;391;51.052;6.954;2022-08-01T07:16:16;101206.19;;;21.84;72.82
818;BME280;391;51.052;6.954;2022-08-01T07:18:20;101216.81;;;21.83;73.08
818;BME280;391;51.052;6.954;2022-08-01T07:20:27;101211.47;;;21.90;72.95
818;BME280;391;51.052;6.954;2022-08-01T07:22:36;101215.91;;;21.91;72.73
818;BME280;391;51.052;6.954;2022-08-01T07:24:39;101207.03;;;21.92;72.88
818;BME280;391;51.052;6.954;2022-08-01T07:26:48;101213.25;;;21.88;72.72
818;BME280;391;51.052;6.954;2022-08-01T07:28:56;101201.75;;;21.86;72.85
818;BME280;391;51.052;6.954;2022-08-01T07:31:00;101213.22;;;21.94;72.67
818;BME280;391;51.052;6.954;2022-08-01T07:33:04;101209.66;;;21.97;72.34
818;BME280;391;51.052;6.954;2022-08-01T07:35:08;101217.56;;;22.01;72.23
818;BME280;391;51.052;6.954;2022-08-01T07:37:12;101215.78;;;22.02;71.61
818;BME280;391;51.052;6.954;2022-08-01T07:39:15;101221.97;;;22.04;71.35
818;BME280;391;51.052;6.954;2022-08-01T07:41:19;101217.44;;;22.13;71.79
818;BME280;391;51.052;6.954;2022-08-01T07:43:44;101226.19;;;22.22;72.13
818;BME280;391;51.052;6.954;2022-08-01T07:45:59;101234.97;;;22.30;71.07
818;BME280;391;51.052;6.954;2022-08-01T07:48:03;101225.31;;;22.23;71.11
818;BME280;391;51.052;6.954;2022-08-01T07:50:10;101231.44;;;22.28;71.16
818;BME280;391;51.052;6.954;2022-08-01T07:52:15;101231.28;;;22.41;70.88
818;BME280;391;51.052;6.954;2022-08-01T07:54:19;101235.56;;;22.53;70.08
818;BME280;391;51.052;6.954;2022-08-01T07:56:35;101235.59;;;22.51;70.10
818;BME280;391;51.052;6.954;2022-08-01T07:58:38;101230.19;;;22.59;70.17
818;BME280;391;51.052;6.954;2022-08-01T08:00:43;101236.44;;;22.55;69.52
818;BME280;391;51.052;6.954;2022-08-01T08:02:47;101221.44;;;22.52;68.84
818;BME280;391;51.052;6.954;2022-08-01T08:04:50;101228.59;;;22.46;68.63
818;BME280;391;51.052;6.954;2022-08-01T08:06:54;101228.59;;;22.46;68.88
818;BME280;391;51.052;6.954;2022-08-01T08:08:57;101233.78;;;22.55;68.25
818;BME280;391;51.052;6.954;2022-08-01T08:11:03;101228.34;;;22.65;67.89
818;BME280;391;51.052;6.954;2022-08-01T08:13:07;101230.06;;;22.71;67.08
818;BME280;391;51.052;6.954;2022-08-01T08:15:10;101227.38;;;22.73;66.90
818;BME280;391;51.052;6.954;2022-08-01T08:17:16;101234.63;;;22.57;66.14
818;BME280;391;51.052;6.954;2022-08-01T08:19:19;101229.31;;;22.57;66.35
818;BME280;391;51.052;6.954;2022-08-01T08:21:39;101236.38;;;22.59;66.44
818;BME280;391;51.052;6.954;2022-08-01T08:23:42;101234.50;;;22.71;66.77
818;BME280;391;51.052;6.954;2022-08-01T08:26:03;101246.69;;;22.87;66.48
818;BME280;391;51.052;6.954;2022-08-01T08:28:08;101228.97;;;22.87;65.48
818;BME280;391;51.052;6.954;2022-08-01T08:30:12;101239.78;;;22.72;65.62
818;BME280;391;51.052;6.954;2022-08-01T08:32:17;101239.69;;;22.81;66.40
818;BME280;391;51.052;6.954;2022-08-01T08:34:20;101238.66;;;22.91;65.82
818;BME280;391;51.052;6.954;2022-08-01T08:36:24;101240.22;;;23.06;66.27
818;BME280;391;51.052;6.954;2022-08-01T08:38:32;101247.09;;;23.20;65.15
818;BME280;391;51.052;6.954;2022-08-01T08:40:36;101249.63;;;23.30;65.10
818;BME280;391;51.052;6.954;2022-08-01T08:42:41;101248.97;;;23.14;63.90
818;BME280;391;51.052;6.954;2022-08-01T08:44:44;101233.31;;;22.93;64.08
818;BME280;391;51.052;6.954;2022-08-01T08:46:50;101261.66;;;22.97;64.26
818;BME280;391;51.052;6.954;2022-08-01T08:48:55;101259.00;;;22.95;64.60
818;BME280;391;51.052;6.954;2022-08-01T08:51:00;101252.78;;;22.95;65.49
818;BME280;391;51.052;6.954;2022-08-01T08:53:04;101256.25;;;23.03;64.89
818;BME280;391;51.052;6.954;2022-08-01T08:55:08;101257.88;;;23.11;64.53
818;BME280;391;51.052;6.954;2022-08-01T08:57:14;101249.72;;;23.24;64.09
818;BME280;391;51.052;6.954;2022-08-01T08:59:17;101248.56;;;23.43;64.31
818;BME280;391;51.052;6.954;2022-08-01T09:01:21;101252.84;;;23.54;63.80
818;BME280;391;51.052;6.954;2022-08-01T09:03:24;101245.00;;;23.44;63.75
818;BME280;391;51.052;6.954;2022-08-01T09:05:29;101252.94;;;23.45;64.18
818;BME280;391;51.052;6.954;2022-08-01T09:07:40;101253.66;;;23.58;64.17
818;BME280;391;51.052;6.954;2022-08-01T09:09:43;101259.06;;;23.52;63.51
818;BME280;391;51.052;6.954;2022-08-01T09:11:50;101260.78;;;23.57;63.22
818;BME280;391;51.052;6.954;2022-08-01T09:14:08;101260.66;;;23.63;61.80
818;BME280;391;51.052;6.954;2022-08-01T09:16:16;101259.09;;;23.50;61.91
818;BME280;391;51.052;6.954;2022-08-01T09:18:31;101265.47;;;23.42;61.82
818;BME280;391;51.052;6.954;2022-08-01T09:20:37;101262.81;;;23.36;61.44
818;BME280;391;51.052;6.954;2022-08-01T09:22:41;101270.81;;;23.39;61.46
818;BME280;391;51.052;6.954;2022-08-01T09:24:59;101269.56;;;23.62;61.35
818;BME280;391;51.052;6.954;2022-08-01T09:27:16;101264.06;;;23.73;61.14
818;BME280;391;51.052;6.954;2022-08-01T09:29:26;101271.06;;;23.79;60.62
818;BME280;391;51.052;6.954;2022-08-01T09:31:40;101265.06;;;23.66;60.56
818;BME280;391;51.052;6.954;2022-08-01T09:33:51;101282.59;;;23.78;61.25
818;BME280;391;51.052;6.954;2022-08-01T09:35:57;101273.72;;;23.80;60.50
818;BME280;391;51.052;6.954;2022-08-01T09:38:14;101269.91;;;23.95;61.00
818;BME280;391;51.052;6.954;2022-08-01T09:40:18;101262.50;;;24.10;59.98
818;BME280;391;51.052;6.954;2022-08-01T09:42:24;101270.47;;;24.13;60.08
818;BME280;391;51.052;6.954;2022-08-01T09:44:38;101274.66;;;24.27;60.11
818;BME280;391;51.052;6.954;2022-08-01T09:46:50;101253.06;;;23.93;59.67
818;BME280;391;51.052;6.954;2022-08-01T09:48:58;101274.16;;;24.05;60.32
818;BME280;391;51.052;6.954;2022-08-01T09:51:03;101273.22;;;24.07;60.49
818;BME280;391;51.052;6.954;2022-08-01T09:53:11;101268.06;;;23.98;60.56
818;BME280;391;51.052;6.954;2022-08-01T09:55:31;101252.63;;;23.66;60.73
818;BME280;391;51.052;6.954;2022-08-01T09:57:35;101274.44;;;23.90;61.00
818;BME280;391;51.052;6.954;2022-08-01T09:59:39;101280.59;;;23.92;60.95
818;BME280;391;51.052;6.954;2022-08-01T10:02:00;101281.44;;;23.94;60.60
818;BME280;391;51.052;6.954;2022-08-01T10:04:05;101280.63;;;23.90;60.27
818;BME280;391;51.052;6.954;2022-08-01T10:06:20;101279.81;;;23.87;60.43
818;BME280;391;51.052;6.954;2022-08-01T10:08:26;101272.56;;;23.93;60.42
818;BME280;391;51.052;6.954;2022-08-01T10:10:30;101271.56;;;24.00;60.25
818;BME280;391;51.052;6.954;2022-08-01T10:12:34;101267.03;;;24.05;60.30
818;BME280;391;51.052;6.954;2022-08-01T10:14:39;101267.75;;;24.16;60.78
818;BME280;391;51.052;6.954;2022-08-01T10:16:47;101248.19;;;24.17;60.01
818;BME280;391;51.052;6.954;2022-08-01T10:18:55;101263.19;;;24.23;59.19
818;BME280;391;51.052;6.954;2022-08-01T10:21:02;101266.78;;;24.20;59.35
818;BME280;391;51.052;6.954;2022-08-01T10:23:14;101265.91;;;24.21;59.03
818;BME280;391;51.052;6.954;2022-08-01T10:25:21;101266.53;;;24.34;59.09
818;BME280;391;51.052;6.954;2022-08-01T10:27:45;101260.84;;;24.52;57.92
818;BME280;391;51.052;6.954;2022-08-01T10:29:55;101259.81;;;24.59;57.04
818;BME280;391;51.052;6.954;2022-08-01T10:32:11;101264.97;;;24.67;57.20
818;BME280;391;51.052;6.954;2022-08-01T10:34:15;101269.38;;;24.69;56.92
818;BME280;391;51.052;6.954;2022-08-01T10:36:24;101245.88;;;24.45;57.89
818;BME280;391;51.052;6.954;2022-08-01T10:38:31;101264.97;;;24.67;57.17
818;BME280;391;51.052;6.954;2022-08-01T10:40:35;101255.44;;;24.55;56.40
818;BME280;391;51.052;6.954;2022-08-01T10:42:41;101254.69;;;24.49;57.26
818;BME280;391;51.052;6.954;2022-08-01T10:44:46;101264.97;;;24.67;56.62
818;BME280;391;51.052;6.954;2022-08-01T10:46:54;101252.97;;;24.89;55.92
818;BME280;391;51.052;6.954;2022-08-01T10:49:04;101258.19;;;24.95;55.56
818;BME280;391;51.052;6.954;2022-08-01T10:51:11;101251.94;;;25.35;54.74
818;BME280;391;51.052;6.954;2022-08-01T10:53:21;101255.81;;;25.60;53.54
818;BME280;391;51.052;6.954;2022-08-01T10:55:58;101239.75;;;25.95;53.34
818;BME280;391;51.052;6.954;2022-08-01T10:58:07;101245.44;;;26.15;52.10
818;BME280;391;51.052;6.954;2022-08-01T11:00:17;101257.09;;;26.13;50.42
818;BME280;391;51.052;6.954;2022-08-01T11:02:28;101254.66;;;26.04;51.55
818;BME280;391;51.052;6.954;2022-08-01T11:04:46;101250.03;;;25.78;51.45
818;BME280;391;51.052;6.954;2022-08-01T11:07:03;101252.31;;;25.92;51.32
818;BME280;391;51.052;6.954;2022-08-01T11:09:23;101246.00;;;25.94;51.48
818;BME280;391;51.052;6.954;2022-08-01T11:11:57;101251.66;;;25.84;52.25
818;BME280;391;51.052;6.954;2022-08-01T11:14:03;101252.81;;;25.72;52.46
818;BME280;391;51.052;6.954;2022-08-01T11:16:25;101243.41;;;25.57;53.09
818;BME280;391;51.052;6.954;2022-08-01T11:18:31;101242.03;;;25.40;53.38
818;BME280;391;51.052;6.954;2022-08-01T11:20:54;101239.53;;;24.95;54.27
818;BME280;391;51.052;6.954;2022-08-01T11:23:20;101242.22;;;24.94;55.19
818;BME280;391;51.052;6.954;2022-08-01T11:25:26;101237.06;;;24.85;54.52
818;BME280;391;51.052;6.954;2022-08-01T11:28:23;101244.56;;;25.07;54.46
818;BME280;391;51.052;6.954;2022-08-01T11:30:36;101240.81;;;25.54;53.91
818;BME280;391;51.052;6.954;2022-08-01T11:32:46;101241.63;;;25.92;51.94
818;BME280;391;51.052;6.954;2022-08-01T11:35:09;101250.41;;;26.30;50.50
818;BME280;391;51.052;6.954;2022-08-01T11:37:24;101235.50;;;26.53;49.02
818;BME280;391;51.052;6.954;2022-08-01T11:39:32;101236.81;;;26.38;48.77
818;BME280;391;51.052;6.954;2022-08-01T11:41:41;101228.72;;;26.41;49.06
818;BME280;391;51.052;6.954;2022-08-01T11:43:57;101225.38;;;26.93;49.85